• Join FlightAware (Why Join?)
  • Login
  • US Flag 
04:19AM EDT


 

Airport Tracker/Info


-or-


 

Live Flight TrackerFlight Track Log ✈ TAM3746 ✈ 19-Sep-2013 ✈ SBGR / GRU - SBEG / MAO

Flight Track Log - Related Links

Times and Time Zones

All times are in EDT time to prevent confusion due to time zone crossing. See the TAM3746 flight status page for this flight to view local times or setup timezone preferences in your user account.

Time Position Orientation Groundspeed Altitude Reporting Facility
EDT Latitude Longitude Course Direction KTS MPH feet Rate Location/Type
10:23PM -23.4270 -46.4130 133° Southeast 167 192 4,200  Level FlightAware
10:23PM -23.4340 -46.4100 159° South 171 197 4,400 1,380 Climbing FlightAware
10:23PM -23.4390 -46.4100 180° South 177 204 4,500 1,140 Climbing FlightAware
10:23PM -23.4540 -46.4160 200° South 194 223 4,900 1,140 Climbing FlightAware
10:23PM -23.4580 -46.4190 215° Southwest 189 217 5,000 1,560 Climbing FlightAware
10:23PM -23.4650 -46.4270 226° Southwest 192 221 5,300 960 Climbing FlightAware
10:24PM -23.4740 -46.4390 231° Southwest 210 242 5,400 660 Climbing FlightAware
10:24PM -23.4850 -46.4570 236° Southwest 225 259 5,700 840 Climbing FlightAware
10:24PM -23.4860 -46.4750 267° West 236 272 5,900 840 Climbing FlightAware
10:25PM -23.4860 -46.5070 270° West 260 299 6,300 1,260 Climbing FlightAware
10:25PM -23.4870 -46.5500 269° West 282 325 7,100 1,800 Climbing FlightAware
10:26PM -23.4880 -46.5770 268° West 286 329 7,800 2,400 Climbing FlightAware
10:26PM -23.4890 -46.6000 267° West 285 328 8,500 2,400 Climbing FlightAware
10:26PM -23.4900 -46.6300 268° West 286 329 9,300 2,220 Climbing FlightAware
10:26PM -23.4900 -46.6580 270° West 291 335 10,000 1,620 Climbing FlightAware
10:27PM -23.4920 -46.7120 268° West 312 359 10,800 1,140 Climbing FlightAware
10:28PM -23.4930 -46.7730 269° West 342 394 11,400 1,380 Climbing FlightAware
10:28PM -23.4950 -46.8280 268° West 350 403 12,400 1,980 Climbing FlightAware
10:29PM -23.4960 -46.8950 269° West 352 405 13,700 1,980 Climbing FlightAware
10:29PM -23.4980 -46.9580 268° West 356 410 14,900 2,100 Climbing FlightAware
10:30PM -23.4990 -47.0170 269° West 353 406 16,100 1,920 Climbing FlightAware
10:31PM -23.5010 -47.0840 268° West 357 411 17,200 1,260 Climbing FlightAware
10:31PM -23.5010 -47.1280 270° West 361 415 17,800 1,020 Climbing FlightAware
10:31PM -23.4970 -47.1520 280° West 364 419 18,100 1,680 Climbing FlightAware
10:32PM -23.4770 -47.1900 300° West 370 426 18,800 1,560 Climbing FlightAware
10:32PM -23.4440 -47.2430 304° West 374 430 19,600 1,560 Climbing FlightAware
10:33PM -23.4110 -47.2990 303° West 373 429 20,600 1,440 Climbing FlightAware
10:34PM -23.3810 -47.3490 303° West 375 432 21,300 1,200 Climbing FlightAware
10:34PM -23.3500 -47.4020 302° West 382 440 21,900 1,260 Climbing FlightAware
10:35PM -23.3090 -47.4680 304° West 384 442 22,900 1,260 Climbing FlightAware
10:35PM -23.2790 -47.5190 303° West 386 444 23,500 1,200 Climbing FlightAware
10:36PM -23.2480 -47.5720 302° West 386 444 24,200 1,140 Climbing FlightAware
10:37PM -23.2100 -47.6350 303° West 389 448 24,900 1,020 Climbing FlightAware
10:37PM -23.1740 -47.6940 304° West 393 452 25,500 960 Climbing FlightAware
10:38PM -23.1350 -47.7590 303° West 397 457 26,100 840 Climbing FlightAware
10:38PM -23.0960 -47.8240 303° West 402 463 26,700 780 Climbing FlightAware
10:39PM -23.0620 -47.8800 303° West 406 467 27,100 720 Climbing FlightAware
10:40PM -23.0290 -47.9360 303° West 410 472 27,500 780 Climbing FlightAware
10:40PM -22.9900 -48.0000 303° West 414 476 28,000 780 Climbing FlightAware
10:41PM -22.9550 -48.0580 303° West 420 483 28,400 660 Climbing FlightAware
10:41PM -22.9150 -48.1240 303° West 424 488 28,800 660 Climbing FlightAware
10:42PM -22.8820 -48.1800 303° West 426 490 29,200 840 Climbing FlightAware
10:43PM -22.8330 -48.2590 304° West 426 490 29,900 900 Climbing FlightAware
10:43PM -22.8000 -48.3130 304° West 425 489 30,400 900 Climbing FlightAware
10:44PM -22.7600 -48.3800 303° West 424 488 31,000 1,020 Climbing FlightAware
10:44PM -22.7000 -48.4770 304° West 421 484 31,800 1,080 Climbing FlightAware
10:45PM -22.6630 -48.5380 303° West 422 486 32,300 780 Climbing FlightAware
10:45PM -22.6290 -48.5940 303° West 420 483 32,700 660 Climbing FlightAware
10:46PM -22.5860 -48.6640 304° West 421 484 33,100 720 Climbing FlightAware
10:47PM -22.5470 -48.7280 303° West 419 482 33,600 660 Climbing FlightAware
10:47PM -22.5130 -48.7840 303° West 420 483 33,900 300 Climbing FlightAware
10:48PM -22.4720 -48.8490 304° West 421 484 34,000 60 Climbing FlightAware
10:48PM -22.4330 -48.9140 303° West 420 483 34,000  Level FlightAware
10:49PM -22.3990 -48.9700 303° West 420 483 34,000  Level FlightAware
10:50PM -22.3610 -49.0310 304° West 419 482 34,000  Level FlightAware
10:50PM -22.3200 -49.0950 305° West 420 483 34,000  Level FlightAware
10:51PM -22.2810 -49.1450 310° West 426 490 34,000  Level FlightAware
10:51PM -22.2310 -49.2000 314° West 427 491 34,000  Level FlightAware
10:52PM -22.1820 -49.2550 314° West 427 491 34,000  Level FlightAware
10:53PM -22.1310 -49.3120 314° West 427 491 34,000  Level FlightAware
10:53PM -22.0870 -49.3610 314° West 427 491 34,000  Level FlightAware
10:54PM -22.0350 -49.4190 314° West 425 489 34,000  Level FlightAware
10:54PM -21.9860 -49.4730 314° West 426 490 34,000  Level FlightAware
10:55PM -21.9420 -49.5230 313° West 427 491 34,000  Level FlightAware
10:55PM -21.8930 -49.5760 315° West 431 496 34,000  Level FlightAware
10:56PM -21.8370 -49.6290 319° Northwest 436 502 34,000  Level FlightAware
10:57PM -21.7890 -49.6750 318° Northwest 437 503 34,000  Level FlightAware
10:57PM -21.7340 -49.7280 318° Northwest 438 504 34,000  Level FlightAware
10:58PM -21.6800 -49.7800 318° Northwest 438 504 34,000  Level FlightAware
10:58PM -21.6290 -49.8290 318° Northwest 440 506 34,000  Level FlightAware
10:59PM -21.5760 -49.8800 318° Northwest 440 506 34,000  Level FlightAware
11:00PM -21.5230 -49.9320 318° Northwest 438 504 34,000  Level FlightAware
11:00PM -21.4670 -49.9850 319° Northwest 439 505 34,000  Level FlightAware
11:01PM -21.4140 -50.0370 318° Northwest 439 505 34,000  Level FlightAware
11:01PM -21.3650 -50.0840 318° Northwest 440 506 34,000  Level FlightAware
11:02PM -21.3110 -50.1360 318° Northwest 440 506 34,000  Level FlightAware
11:02PM -21.2570 -50.1880 318° Northwest 439 505 34,000  Level FlightAware
11:03PM -21.2030 -50.2390 319° Northwest 440 506 34,000  Level FlightAware
11:04PM -21.1480 -50.2880 320° Northwest 446 513 34,000  Level FlightAware
11:04PM -21.0890 -50.3260 329° Northwest 449 517 34,000  Level FlightAware
11:05PM -21.0180 -50.3700 330° Northwest 449 517 34,000  Level FlightAware
11:05PM -20.9660 -50.4030 329° Northwest 448 516 34,000  Level FlightAware
11:06PM -20.9050 -50.4420 329° Northwest 449 517 34,000  Level FlightAware
11:07PM -20.8440 -50.4800 330° Northwest 449 517 34,000  Level FlightAware
11:07PM -20.7810 -50.5200 329° Northwest 447 514 34,000  Level FlightAware
11:08PM -20.7020 -50.5700 329° Northwest 447 514 34,000  Level FlightAware
11:08PM -20.6400 -50.6090 330° Northwest 447 514 34,000  Level FlightAware
11:09PM -20.5810 -50.6460 330° Northwest 447 514 34,000  Level FlightAware
11:10PM -20.5080 -50.6920 329° Northwest 447 514 34,000  Level FlightAware
11:10PM -20.4430 -50.7330 329° Northwest 447 514 34,000  Level FlightAware
11:11PM -20.3740 -50.7760 330° Northwest 448 516 34,000  Level FlightAware
11:11PM -20.3080 -50.8170 330° Northwest 449 517 34,000  Level FlightAware
11:12PM -20.2450 -50.8570 329° Northwest 450 518 34,000  Level FlightAware
11:13PM -20.1880 -50.8930 329° Northwest 451 519 34,000  Level FlightAware
11:13PM -20.1080 -50.9430 330° Northwest 453 521 34,000  Level FlightAware
11:14PM -20.0510 -50.9790 329° Northwest 453 521 34,000  Level FlightAware
11:15PM -19.9910 -51.0170 329° Northwest 453 521 34,000  Level FlightAware
11:15PM -19.9360 -51.0520 329° Northwest 453 521 34,000  Level FlightAware
11:16PM -19.8810 -51.0870 329° Northwest 453 521 34,000  Level FlightAware
11:16PM -19.8260 -51.1220 329° Northwest 453 521 34,000  Level FlightAware
11:17PM -19.7710 -51.1570 329° Northwest 453 521 34,000  Level FlightAware
11:18PM -19.7160 -51.1920 329° Northwest 453 521 34,000  Level FlightAware
11:18PM -19.6610 -51.2270 329° Northwest 453 521 34,000  Level FlightAware
11:19PM -19.6050 -51.2630 329° Northwest 453 521 34,000  Level FlightAware
11:19PM -19.5500 -51.2980 329° Northwest 453 521 34,000  Level FlightAware
11:20PM -19.4930 -51.3340 329° Northwest 453 521 34,000  Level FlightAware
11:21PM -19.4370 -51.3700 329° Northwest 453 521 34,000  Level FlightAware
11:21PM -19.3820 -51.4050 329° Northwest 453 521 34,000  Level FlightAware
11:22PM -19.3250 -51.4410 329° Northwest 453 521 34,000  Level FlightAware
11:22PM -19.2670 -51.4780 329° Northwest 453 521 34,000  Level FlightAware
11:23PM -19.2120 -51.5130 329° Northwest 453 521 34,000  Level FlightAware
11:24PM -19.1570 -51.5480 329° Northwest 453 521 34,000 -180 Level FlightAware
11:26PM -18.9741 -51.6522 332° Northwest  Level Estimated
11:27PM -18.8770 -51.7074 332° Northwest  Level Estimated
11:28PM -18.7799 -51.7625 332° Northwest  Level Estimated
11:29PM -18.6827 -51.8176 332° Northwest  Level Estimated
11:30PM -18.5856 -51.8726 332° Northwest  Level Estimated
11:31PM -18.4884 -51.9276 332° Northwest  Level Estimated
11:32PM -18.3912 -51.9825 332° Northwest  Level Estimated
11:33PM -18.2940 -52.0373 332° Northwest  Level Estimated
11:34PM -18.1967 -52.0921 332° Northwest  Level Estimated
11:35PM -18.0995 -52.1468 332° Northwest  Level Estimated
11:36PM -18.0022 -52.2015 332° Northwest  Level Estimated
11:37PM -17.9049 -52.2561 332° Northwest  Level Estimated
11:38PM -17.8076 -52.3106 332° Northwest  Level Estimated
11:39PM -17.7103 -52.3651 332° Northwest  Level Estimated
11:40PM -17.6173 -52.4171 332° Northwest  Level Estimated
11:41PM -17.5242 -52.4691 332° Northwest  Level Estimated
11:42PM -17.4310 -52.5210 332° Northwest  Level Estimated
11:43PM -17.3379 -52.5729 332° Northwest  Level Estimated
11:44PM -17.2448 -52.6248 332° Northwest  Level Estimated
11:45PM -17.1516 -52.6766 332° Northwest  Level Estimated
11:46PM -17.0584 -52.7283 332° Northwest  Level Estimated
11:47PM -16.9653 -52.7800 332° Northwest  Level Estimated
11:48PM -16.8720 -52.8316 332° Northwest  Level Estimated
11:49PM -16.7788 -52.8832 332° Northwest  Level Estimated
11:50PM -16.6856 -52.9347 332° Northwest  Level Estimated
11:51PM -16.5924 -52.9862 332° Northwest  Level Estimated
11:52PM -16.4991 -53.0376 332° Northwest  Level Estimated
11:53PM -16.4059 -53.0890 332° Northwest  Level Estimated
11:54PM -16.3126 -53.1403 332° Northwest  Level Estimated
11:55PM -16.2193 -53.1916 332° Northwest  Level Estimated
11:56PM -16.1260 -53.2429 332° Northwest  Level Estimated
11:57PM -16.0327 -53.2940 332° Northwest  Level Estimated
11:58PM -15.9394 -53.3452 332° Northwest  Level Estimated
11:59PM -15.8461 -53.3963 332° Northwest  Level Estimated
12:00AM -15.7527 -53.4473 332° Northwest  Level Estimated
12:01AM -15.6593 -53.4983 332° Northwest  Level Estimated
12:02AM -15.5660 -53.5493 332° Northwest  Level Estimated
12:03AM -15.4726 -53.6002 332° Northwest  Level Estimated
12:04AM -15.3792 -53.6510 332° Northwest  Level Estimated
12:05AM -15.2858 -53.7018 332° Northwest  Level Estimated
12:06AM -15.1924 -53.7526 332° Northwest  Level Estimated
12:07AM -15.0990 -53.8033 332° Northwest  Level Estimated
12:08AM -15.0055 -53.8540 332° Northwest  Level Estimated
12:09AM -14.9121 -53.9046 332° Northwest  Level Estimated
12:10AM -14.8186 -53.9552 332° Northwest  Level Estimated
12:11AM -14.7251 -54.0057 332° Northwest  Level Estimated
12:12AM -14.6316 -54.0563 332° Northwest  Level Estimated
12:13AM -14.5382 -54.1067 332° Northwest  Level Estimated
12:14AM -14.4447 -54.1571 332° Northwest  Level Estimated
12:15AM -14.3511 -54.2075 332° Northwest  Level Estimated
12:16AM -14.2576 -54.2578 332° Northwest  Level Estimated
12:17AM -14.1641 -54.3081 332° Northwest  Level Estimated
12:18AM -14.0705 -54.3584 332° Northwest  Level Estimated
12:19AM -13.9770 -54.4086 332° Northwest  Level Estimated
12:20AM -13.8834 -54.4587 333° Northwest  Level Estimated
12:21AM -13.7898 -54.5089 333° Northwest  Level Estimated
12:22AM -13.6962 -54.5589 333° Northwest  Level Estimated
12:23AM -13.6026 -54.6090 333° Northwest  Level Estimated
12:24AM -13.5090 -54.6590 333° Northwest  Level Estimated
12:25AM -13.4154 -54.7090 333° Northwest  Level Estimated
12:26AM -13.3218 -54.7589 333° Northwest  Level Estimated
12:27AM -13.2281 -54.8088 333° Northwest  Level Estimated
12:28AM -13.1345 -54.8586 333° Northwest  Level Estimated
12:29AM -13.0408 -54.9084 333° Northwest  Level Estimated
12:30AM -12.9471 -54.9582 333° Northwest  Level Estimated
12:31AM -12.8535 -55.0079 333° Northwest  Level Estimated
12:32AM -12.7598 -55.0577 333° Northwest  Level Estimated
12:33AM -12.6661 -55.1073 333° Northwest  Level Estimated
12:34AM -12.5724 -55.1569 333° Northwest  Level Estimated
12:35AM -12.4787 -55.2065 333° Northwest  Level Estimated
12:36AM -12.3849 -55.2561 333° Northwest  Level Estimated
12:37AM -12.2912 -55.3056 333° Northwest  Level Estimated
12:38AM -12.1975 -55.3551 333° Northwest  Level Estimated
12:39AM -12.1037 -55.4045 333° Northwest  Level Estimated
12:40AM -12.0100 -55.4539 333° Northwest  Level Estimated
12:41AM -11.9162 -55.5033 333° Northwest  Level Estimated
12:42AM -11.8224 -55.5527 333° Northwest  Level Estimated
12:43AM -11.7287 -55.6020 333° Northwest  Level Estimated
12:44AM -11.6349 -55.6513 333° Northwest  Level Estimated
12:45AM -11.5411 -55.7005 333° Northwest  Level Estimated
12:46AM -11.4473 -55.7497 333° Northwest  Level Estimated
12:47AM -11.3534 -55.7989 333° Northwest  Level Estimated
12:48AM -11.2596 -55.8480 333° Northwest  Level Estimated
12:49AM -11.1658 -55.8972 333° Northwest  Level Estimated
12:50AM -11.0719 -55.9463 333° Northwest  Level Estimated
12:51AM -10.9781 -55.9953 333° Northwest  Level Estimated
12:52AM -10.8842 -56.0443 333° Northwest  Level Estimated
12:53AM -10.7904 -56.0933 333° Northwest  Level Estimated
12:54AM -10.6965 -56.1423 333° Northwest  Level Estimated
12:55AM -10.6026 -56.1912 333° Northwest  Level Estimated
12:56AM -10.5087 -56.2401 333° Northwest  Level Estimated
12:57AM -10.4148 -56.2890 333° Northwest  Level Estimated
12:58AM -10.3209 -56.3378 333° Northwest  Level Estimated
12:59AM -10.2270 -56.3866 333° Northwest  Level Estimated
01:00AM -10.1331 -56.4354 333° Northwest  Level Estimated
01:01AM -10.0392 -56.4841 333° Northwest  Level Estimated
01:02AM -9.9453 -56.5329 333° Northwest  Level Estimated
01:03AM -9.8513 -56.5816 333° Northwest  Level Estimated
01:04AM -9.7574 -56.6302 333° Northwest  Level Estimated
01:05AM -9.6634 -56.6789 333° Northwest  Level Estimated
01:06AM -9.5695 -56.7275 333° Northwest  Level Estimated
01:07AM -9.4755 -56.7761 333° Northwest  Level Estimated
01:08AM -9.3815 -56.8246 333° Northwest  Level Estimated
01:09AM -9.2875 -56.8732 333° Northwest  Level Estimated
01:10AM -9.1936 -56.9217 333° Northwest  Level Estimated
01:11AM -9.0996 -56.9702 333° Northwest  Level Estimated
01:12AM -9.0056 -57.0186 333° Northwest  Level Estimated
01:13AM -8.9116 -57.0671 333° Northwest  Level Estimated
01:14AM -8.8176 -57.1155 333° Northwest  Level Estimated
01:15AM -8.7235 -57.1639 333° Northwest  Level Estimated
01:16AM -8.6295 -57.2122 333° Northwest  Level Estimated
01:17AM -8.5355 -57.2606 333° Northwest  Level Estimated
01:18AM -8.4415 -57.3089 333° Northwest  Level Estimated
01:19AM -8.3474 -57.3572 333° Northwest  Level Estimated
01:20AM -8.2534 -57.4054 333° Northwest  Level Estimated
01:21AM -8.1593 -57.4537 333° Northwest  Level Estimated
01:22AM -8.0653 -57.5019 333° Northwest  Level Estimated
01:23AM -7.9712 -57.5501 333° Northwest  Level Estimated
01:24AM -7.8771 -57.5982 333° Northwest  Level Estimated
01:25AM -7.7831 -57.6464 333° Northwest  Level Estimated
01:26AM -7.6890 -57.6945 333° Northwest  Level Estimated
01:27AM -7.5949 -57.7426 333° Northwest  Level Estimated
01:28AM -7.5008 -57.7907 333° Northwest  Level Estimated
01:29AM -7.4067 -57.8388 333° Northwest  Level Estimated
01:30AM -7.3126 -57.8868 333° Northwest  Level Estimated
01:31AM -7.2185 -57.9349 333° Northwest  Level Estimated
01:32AM -7.1244 -57.9829 333° Northwest  Level Estimated
01:33AM -7.0303 -58.0309 333° Northwest  Level Estimated
01:34AM -6.9361 -58.0788 333° Northwest  Level Estimated
01:35AM -6.8420 -58.1268 333° Northwest  Level Estimated
01:36AM -6.7479 -58.1747 333° Northwest  Level Estimated
01:37AM -6.6537 -58.2226 333° Northwest  Level Estimated
01:38AM -6.5596 -58.2705 333° Northwest  Level Estimated
01:39AM -6.4655 -58.3184 333° Northwest  Level Estimated
01:40AM -6.3713 -58.3662 333° Northwest  Level Estimated
01:41AM -6.2772 -58.4141 333° Northwest  Level Estimated
01:41AM -3.4330 -60.0900 333° Northwest 302 348 9,900  Level FlightAware
01:42AM -6.1830 -58.4619 333° Northwest  Level Estimated
01:42AM -3.4100 -60.1020 332° Northwest 298 343 9,500  Level FlightAware
01:42AM -3.3760 -60.1200 332° Northwest 301 346 8,600 -1,800 Descending FlightAware
01:42AM -3.3550 -60.1310 332° Northwest 299 344 8,200 -1,320 Descending FlightAware
01:43AM -3.3370 -60.1410 331° Northwest 298 343 7,900 -720 Descending FlightAware
01:43AM -3.2950 -60.1630 332° Northwest 295 339 7,600 -1,500 Descending FlightAware
01:44AM -3.2700 -60.1760 333° Northwest 290 334 6,500 -2,580 Descending FlightAware
01:44AM -3.2440 -60.1890 333° Northwest 288 331 5,900 -1,740 Descending FlightAware
01:44AM -3.2350 -60.1930 336° Northwest 286 329 5,700 -1,740 Descending FlightAware
01:44AM -3.2250 -60.1950 349° North 283 326 5,500 -1,500 Descending FlightAware
01:45AM -3.1980 -60.2000 350° North 282 325 5,000 -1,620 Descending FlightAware
01:45AM -3.1760 -60.2040 350° North 280 322 4,500 -1,200 Descending FlightAware
01:45AM -3.1400 -60.2100 351° North 269 310 4,100 -780 Descending FlightAware
01:46AM -3.1160 -60.2150 348° North 255 293 3,900 -600 Descending FlightAware
01:46AM -3.0940 -60.2190 350° North 243 280 3,700 -780 Descending FlightAware
01:46AM -3.0710 -60.2230 350° North 234 269 3,400 -780 Descending FlightAware
01:47AM -3.0460 -60.2130 22° Northeast 214 246 3,100 -540 Descending FlightAware
01:47AM -3.0420 -60.2090 45° Northeast 212 244 3,100  Level FlightAware
01:47AM -3.0390 -60.2000 72° East 200 230 3,100  Level FlightAware
01:47AM -3.0380 -60.1970 72° East 192 221 3,100  Level FlightAware
01:47AM -3.0370 -60.1920 79° East 182 209 3,100 -660 Level FlightAware
01:48AM -3.0380 -60.1750 93° East 170 196 2,800 -1,020 Descending FlightAware
01:48AM -3.0390 -60.1580 93° East 165 190 2,400 -1,260 Descending FlightAware
01:48AM -3.0390 -60.1410 90° East 157 181 1,900 -1,140 Descending FlightAware
01:49AM -3.0380 -60.1260 86° East 151 174 1,600 -900 Descending FlightAware
01:49AM -3.0390 -60.1080 93° East 143 165 1,200 -780 Descending FlightAware
01:50AM -3.0390 -60.0890 90° East 144 166 900 -720 Descending FlightAware
01:50AM -3.0380 -60.0740 86° East 145 167 600 -360 Descending FlightAware
01:50AM -3.0380 -60.0590 90° East 145 167 600  Level FlightAware